Observation data for Memphis on 01/17/2019      Previous  Date  Next       Current Mesonet Observations  Soil Data  Daily Summary Page  Observations in Plain Language
KMES 170600Z 30011G17KT 15/M01 A2999 RMK A01 T01451012  RH  034%=      5-min Rain = 0
KMES 170605Z 31010G15KT 14/M01 A2999 RMK A01 T01411011  RH  036%=      5-min Rain = 0
KMES 170610Z 32009G14KT 14/M01 A30 RMK A01 T01351008  RH  038%=      5-min Rain = 0
KMES 170615Z 32012G17KT 13/M01 A30 RMK A01 T01311007  RH  039%=      5-min Rain = 0
KMES 170620Z 32012G17KT 13/M01 A30 RMK A01 T01301005  RH  040%=      5-min Rain = 0
KMES 170625Z 32012KT 13/M00 A3001 RMK A01 T01261004  RH  041%=      5-min Rain = 0
KMES 170630Z 34010KT 12/M00 A3001 RMK A01 T01201002  RH  044%=      5-min Rain = 0
KMES 170635Z 01011KT 10/01 A3002 RMK A01 T01030005  RH  051%=      5-min Rain = 0
KMES 170640Z 00011G16KT 09/01 A3002 RMK A01 T00880013  RH  060%=      5-min Rain = 0
KMES 170645Z 35010KT 08/02 A3003 RMK A01 T00790017  RH  066%=      5-min Rain = 0
KMES 170650Z 35010KT 07/02 A3003 RMK A01 T00730020  RH  070%=      5-min Rain = 0
KMES 170655Z 35011KT 07/02 A3003 RMK A01 T00670021  RH  074%=      5-min Rain = 0
KMES 170700Z 35012KT 06/02 A3003 RMK A01 T00610021  RH  077%=      5-min Rain = 0
KMES 170705Z 35012KT 06/02 A3003 RMK A01 T00570021  RH  079%=      5-min Rain = 0
KMES 170710Z 35011KT 05/02 A3003 RMK A01 T00540020  RH  080%=      5-min Rain = 0
KMES 170715Z 34012G17KT 05/02 A3003 RMK A01 T00530021  RH  081%=      5-min Rain = 0
KMES 170720Z 34011KT 05/02 A3003 RMK A01 T00520022  RH  082%=      5-min Rain = 0
KMES 170725Z 34012KT 05/02 A3003 RMK A01 T00530023  RH  083%=      5-min Rain = 0
KMES 170730Z 35011KT 05/02 A3003 RMK A01 T00520023  RH  083%=      5-min Rain = 0
KMES 170735Z 34009KT 05/02 A3003 RMK A01 T00510023  RH  084%=      5-min Rain = 0
KMES 170740Z 34009KT 05/02 A3003 RMK A01 T00500024  RH  085%=      5-min Rain = 0
KMES 170745Z 33010KT 05/03 A3003 RMK A01 T00510025  RH  085%=      5-min Rain = 0
KMES 170750Z 33009G14KT 05/03 A3003 RMK A01 T00500025  RH  085%=      5-min Rain = 0
KMES 170755Z 33009KT 05/03 A3003 RMK A01 T00500025  RH  085%=      5-min Rain = 0
KMES 170800Z 33009KT 05/03 A3003 RMK A01 T00490025  RH  086%=      5-min Rain = 0
KMES 170805Z 33012G17KT 05/03 A3003 RMK A01 T00490026  RH  086%=      5-min Rain = 0
KMES 170810Z 33014G19KT 05/03 A3003 RMK A01 T00510027  RH  086%=      5-min Rain = 0
KMES 170815Z 33012KT 05/03 A3003 RMK A01 T00510027  RH  086%=      5-min Rain = 0
KMES 170820Z 33012KT 05/03 A3003 RMK A01 T00500026  RH  086%=      5-min Rain = 0
KMES 170825Z 33013KT 05/03 A3003 RMK A01 T00500027  RH  087%=      5-min Rain = 0
KMES 170830Z 34012G17KT 05/03 A3003 RMK A01 T00500027  RH  086%=      5-min Rain = 0
KMES 170835Z 34012KT 05/03 A3004 RMK A01 T00490026  RH  086%=      5-min Rain = 0
KMES 170840Z 35009KT 05/03 A3004 RMK A01 T00480026  RH  087%=      5-min Rain = 0
KMES 170845Z 35006G11KT 05/03 A3005 RMK A01 T00470025  RH  087%=      5-min Rain = 0
KMES 170850Z 35004KT 05/02 A3005 RMK A01 T00460024  RH  087%=      5-min Rain = 0
KMES 170855Z 01004KT 05/02 A3006 RMK A01 T00450024  RH  088%=      5-min Rain = 0
KMES 170900Z 35002KT 05/02 A3006 RMK A01 T00450023  RH  088%=      5-min Rain = 0
KMES 170905Z 34005KT 04/02 A3007 RMK A01 T00440023  RH  088%=      5-min Rain = 0
KMES 170910Z 34005KT 04/02 A3007 RMK A01 T00440023  RH  088%=      5-min Rain = 0
KMES 170915Z 35007KT 04/02 A3007 RMK A01 T00440024  RH  088%=      5-min Rain = 0
KMES 170920Z 36007KT 04/02 A3007 RMK A01 T00440024  RH  088%=      5-min Rain = 0
KMES 170925Z 00006KT 05/02 A3007 RMK A01 T00450024  RH  088%=      5-min Rain = 0
KMES 170930Z 35006G11KT 04/02 A3007 RMK A01 T00440023  RH  088%=      5-min Rain = 0
KMES 170935Z 01006KT 04/02 A3008 RMK A01 T00430023  RH  088%=      5-min Rain = 0
KMES 170940Z 02003KT 04/02 A3008 RMK A01 T00430023  RH  088%=      5-min Rain = 0
KMES 170945Z 07002KT 04/02 A3008 RMK A01 T00420023  RH  089%=      5-min Rain = 0
KMES 170950Z 06002KT 04/02 A3009 RMK A01 T00400021  RH  089%=      5-min Rain = 0
KMES 170955Z 05002KT 04/02 A3009 RMK A01 T00380020  RH  089%=      5-min Rain = 0
KMES 171000Z 04002KT 04/02 A3009 RMK A01 T00370020  RH  090%=      5-min Rain = 0
KMES 171005Z 03000KT 04/02 A3009 RMK A01 T00370020  RH  090%=      5-min Rain = 0
KMES 171010Z 17000KT 04/02 A301 RMK A01 T00370020  RH  090%=      5-min Rain = 0
KMES 171015Z 20001KT 04/02 A3009 RMK A01 T00380022  RH  091%=      5-min Rain = 0
KMES 171020Z 30001KT 04/02 A301 RMK A01 T00380021  RH  090%=      5-min Rain = 0
KMES 171025Z 16001KT 03/02 A301 RMK A01 T00340017  RH  090%=      5-min Rain = 0
KMES 171030Z 16004KT 03/01 A301 RMK A01 T00310014  RH  090%=      5-min Rain = 0
KMES 171035Z 18003KT 03/02 A301 RMK A01 T00310016  RH  092%=      5-min Rain = 0
KMES 171040Z 35001KT 03/02 A301 RMK A01 T00330019  RH  092%=      5-min Rain = 0
KMES 171045Z 34004KT 03/02 A301 RMK A01 T00330019  RH  091%=      5-min Rain = 0
KMES 171050Z 33002KT 03/02 A301 RMK A01 T00320017  RH  091%=      5-min Rain = 0
KMES 171055Z 19003KT 03/01 A301 RMK A01 T00280013  RH  091%=      5-min Rain = 0
KMES 171100Z 17001KT 03/01 A301 RMK A01 T00270013  RH  092%=      5-min Rain = 0
KMES 171105Z 00000KT 03/01 A301 RMK A01 T00260012  RH  092%=      5-min Rain = 0
KMES 171110Z 32001KT 02/01 A301 RMK A01 T00220008  RH  092%=      5-min Rain = 0
KMES 171115Z 31004KT 02/01 A301 RMK A01 T00200009  RH  093%=      5-min Rain = 0
KMES 171120Z 32005KT 02/01 A301 RMK A01 T00210012  RH  095%=      5-min Rain = 0
KMES 171125Z 31005KT 03/02 A301 RMK A01 T00270018  RH  095%=      5-min Rain = 0
KMES 171130Z 32003KT 03/02 A301 RMK A01 T00320021  RH  094%=      5-min Rain = 0
KMES 171135Z 19003KT 03/01 A301 RMK A01 T00270013  RH  092%=      5-min Rain = 0
KMES 171140Z 17002KT 03/01 A301 RMK A01 T00250013  RH  093%=      5-min Rain = 0
KMES 171145Z 00000KT 02/01 A3011 RMK A01 T00200007  RH  092%=      5-min Rain = 0
KMES 171150Z 02001KT 02/01 A3011 RMK A01 T00180005  RH  093%=      5-min Rain = 0
KMES 171155Z 36004KT 01/00 A3011 RMK A01 T00140003  RH  093%=      5-min Rain = 0
KMES 171200Z 35003KT 01/00 A3011 RMK A01 T00110001  RH  094%=      5-min Rain = 0
KMES 171205Z 04000KT 01/00 A3011 RMK A01 T00100001  RH  095%=      5-min Rain = 0
KMES 171210Z 00000KT 01/00 A3011 RMK A01 T00130004  RH  095%=      5-min Rain = 0
KMES 171215Z 35002KT 01/M00 A3011 RMK A01 T00071003  RH  094%=      5-min Rain = 0
KMES 171220Z 34004KT M00/M01 A3011 RMK A01 T10011010  RH  094%=      5-min Rain = 0
KMES 171225Z 35001KT M00/M01 A3011 RMK A01 T10021009  RH  096%=      5-min Rain = 0
KMES 171230Z 16001KT 00/M00 A3012 RMK A01 T00041002  RH  097%=      5-min Rain = 0
KMES 171235Z 02000KT 01/00 A3011 RMK A01 T00080002  RH  097%=      5-min Rain = 0
KMES 171240Z 35003KT 00/M00 A3011 RMK A01 T00041004  RH  095%=      5-min Rain = 0
KMES 171245Z 33002KT 00/M00 A3012 RMK A01 T00031004  RH  097%=      5-min Rain = 0
KMES 171250Z 20002KT 00/M00 A3013 RMK A01 T00031004  RH  096%=      5-min Rain = 0
KMES 171255Z 18001KT 00/01 A3013 RMK A01 T000000-6  RH  097%=      5-min Rain = 0
KMES 171300Z 01003KT 00/M00 A3013 RMK A01 T00021004  RH  097%=      5-min Rain = 0
KMES 171305Z 36008KT 00/M00 A3013 RMK A01 T00021004  RH  097%=      5-min Rain = 0
KMES 171310Z 00007KT 00/M01 A3013 RMK A01 T00011005  RH  097%=      5-min Rain = 0
KMES 171315Z 01006KT 00/M00 A3013 RMK A01 T00021003  RH  097%=      5-min Rain = 0
KMES 171320Z 01004KT 00/01 A3013 RMK A01 T00-000-6  RH  097%=      5-min Rain = 0
KMES 171325Z 03002KT M00/M01 A3014 RMK A01 T10021008  RH  097%=      5-min Rain = 0
KMES 171330Z 02001KT M00/M01 A3014 RMK A01 T10041010  RH  097%=      5-min Rain = 0
KMES 171335Z 00002KT M01/M01 A3014 RMK A01 T10051010  RH  097%=      5-min Rain = 0
KMES 171340Z 34002KT M00/M01 A3014 RMK A01 T10041008  RH  098%=      5-min Rain = 0
KMES 171345Z 31001KT M00/M01 A3014 RMK A01 T10021007  RH  098%=      5-min Rain = 0
KMES 171350Z 17000KT M00/M01 A3015 RMK A01 T10021007  RH  098%=      5-min Rain = 0
KMES 171355Z 16004KT M00/M01 A3015 RMK A01 T10011006  RH  098%=      5-min Rain = 0
KMES 171400Z 15006KT 00/01 A3016 RMK A01 T00-000-5  RH  098%=      5-min Rain = 0
KMES 171405Z 16005KT 00/M00 A3016 RMK A01 T00031002  RH  098%=      5-min Rain = 0
KMES 171410Z 17004KT 00/M00 A3016 RMK A01 T00031002  RH  098%=      5-min Rain = 0
KMES 171415Z 16005KT 00/M00 A3017 RMK A01 T00021003  RH  098%=      5-min Rain = 0
KMES 171420Z 16005KT 00/M00 A3017 RMK A01 T00021003  RH  098%=      5-min Rain = 0
KMES 171425Z 13003KT 00/M00 A3017 RMK A01 T00031001  RH  098%=      5-min Rain = 0
KMES 171430Z 12002KT 01/00 A3017 RMK A01 T00060002  RH  098%=      5-min Rain = 0
KMES 171435Z 14001KT 01/01 A3017 RMK A01 T00090005  RH  098%=      5-min Rain = 0
KMES 171440Z 19002KT 01/01 A3017 RMK A01 T00100005  RH  097%=      5-min Rain = 0
KMES 171445Z 19003KT 01/01 A3017 RMK A01 T00110006  RH  097%=      5-min Rain = 0
KMES 171450Z 19002KT 01/01 A3017 RMK A01 T00140009  RH  097%=      5-min Rain = 0
KMES 171455Z 20003KT 02/01 A3017 RMK A01 T00200014  RH  097%=      5-min Rain = 0
KMES 171500Z 20005KT 02/02 A3018 RMK A01 T00220015  RH  096%=      5-min Rain = 0
KMES 171505Z 21004KT 03/02 A3018 RMK A01 T00260018  RH  096%=      5-min Rain = 0
KMES 171510Z 20004KT 03/02 A3018 RMK A01 T00290020  RH  095%=      5-min Rain = 0
KMES 171515Z 19004KT 03/02 A3018 RMK A01 T00330023  RH  095%=      5-min Rain = 0
KMES 171520Z 19004KT 04/03 A3018 RMK A01 T00380027  RH  094%=      5-min Rain = 0
KMES 171525Z 19004KT 04/03 A3018 RMK A01 T00410026  RH  092%=      5-min Rain = 0
KMES 171530Z 20004KT 04/03 A3018 RMK A01 T00430025  RH  090%=      5-min Rain = 0
KMES 171535Z 21004KT 05/02 A3018 RMK A01 T00450024  RH  088%=      5-min Rain = 0
KMES 171540Z 21003KT 05/02 A3018 RMK A01 T00470023  RH  086%=      5-min Rain = 0
KMES 171545Z 20003KT 05/02 A3018 RMK A01 T00490023  RH  085%=      5-min Rain = 0
KMES 171550Z 19003KT 05/02 A3018 RMK A01 T00510023  RH  084%=      5-min Rain = 0
KMES 171555Z 20003KT 05/03 A3018 RMK A01 T00540025  RH  083%=      5-min Rain = 0
KMES 171600Z 18002KT 06/03 A3019 RMK A01 T00570026  RH  082%=      5-min Rain = 0
KMES 171605Z 20002KT 06/03 A3019 RMK A01 T00610026  RH  080%=      5-min Rain = 0
KMES 171610Z 22001KT 07/03 A3019 RMK A01 T00650027  RH  078%=      5-min Rain = 0
KMES 171615Z 22002KT 07/03 A3019 RMK A01 T00680027  RH  076%=      5-min Rain = 0
KMES 171620Z 22003KT 07/03 A3019 RMK A01 T00710025  RH  074%=      5-min Rain = 0
KMES 171625Z 23004KT 07/02 A3019 RMK A01 T00730023  RH  072%=      5-min Rain = 0
KMES 171630Z 23003KT 07/02 A3019 RMK A01 T00740021  RH  070%=      5-min Rain = 0
KMES 171635Z 22002KT 08/02 A302 RMK A01 T00760021  RH  069%=      5-min Rain = 0
KMES 171640Z 22003KT 08/02 A302 RMK A01 T00800022  RH  068%=      5-min Rain = 0
KMES 171645Z 20002KT 08/02 A302 RMK A01 T00830023  RH  067%=      5-min Rain = 0
KMES 171650Z 24003KT 09/02 A302 RMK A01 T00880023  RH  065%=      5-min Rain = 0
KMES 171655Z 22003KT 09/02 A302 RMK A01 T00890024  RH  065%=      5-min Rain = 0
KMES 171700Z 22001KT 09/02 A302 RMK A01 T00910024  RH  064%=      5-min Rain = 0
KMES 171705Z 25000KT 10/03 A3019 RMK A01 T00980026  RH  062%=      5-min Rain = 0
KMES 171710Z 32003KT 10/02 A3019 RMK A01 T01010024  RH  060%=      5-min Rain = 0
KMES 171715Z 31003KT 10/02 A3019 RMK A01 T01030024  RH  059%=      5-min Rain = 0
KMES 171720Z 31003KT 11/02 A3019 RMK A01 T01060023  RH  058%=      5-min Rain = 0
KMES 171725Z 29001KT 11/02 A3019 RMK A01 T01080022  RH  056%=      5-min Rain = 0
KMES 171730Z 07000KT 11/02 A3019 RMK A01 T01110023  RH  055%=      5-min Rain = 0
KMES 171735Z 18001KT 12/02 A3019 RMK A01 T01150023  RH  054%=      5-min Rain = 0
KMES 171740Z 19001KT 12/02 A3019 RMK A01 T01180023  RH  053%=      5-min Rain = 0
KMES 171745Z 19002KT 12/02 A3019 RMK A01 T01200022  RH  052%=      5-min Rain = 0
KMES 171750Z 21000KT 12/03 A3019 RMK A01 T01230025  RH  052%=      5-min Rain = 0
KMES 171755Z 15002KT 13/02 A3019 RMK A01 T01270024  RH  050%=      5-min Rain = 0
KMES 171800Z 14002KT 13/02 A3019 RMK A01 T01290024  RH  050%=      5-min Rain = 0
KMES 171805Z 15001KT 13/02 A3019 RMK A01 T01330023  RH  048%=      5-min Rain = 0
KMES 171810Z 16001KT 14/02 A3019 RMK A01 T01380023  RH  046%=      5-min Rain = 0
KMES 171815Z 18001KT 14/03 A3019 RMK A01 T01400025  RH  046%=      5-min Rain = 0
KMES 171820Z 18002KT 14/02 A3018 RMK A01 T01410022  RH  045%=      5-min Rain = 0
KMES 171825Z 15003KT 14/02 A3018 RMK A01 T01410021  RH  045%=      5-min Rain = 0
KMES 171830Z 10001KT 14/02 A3018 RMK A01 T01410020  RH  045%=      5-min Rain = 0
KMES 171835Z 14001KT 14/02 A3018 RMK A01 T01440021  RH  044%=      5-min Rain = 0
KMES 171840Z 13005KT 15/02 A3017 RMK A01 T01450021  RH  044%=      5-min Rain = 0
KMES 171845Z 13005KT 14/02 A3017 RMK A01 T01430019  RH  044%=      5-min Rain = 0
KMES 171850Z 15003KT 15/02 A3016 RMK A01 T01450018  RH  043%=      5-min Rain = 0
KMES 171855Z 15005KT 15/02 A3016 RMK A01 T01480018  RH  042%=      5-min Rain = 0
KMES 171900Z 14005KT 15/02 A3015 RMK A01 T01500018  RH  041%=      5-min Rain = 0
KMES 171905Z 14005KT 15/02 A3015 RMK A01 T01490018  RH  042%=      5-min Rain = 0
KMES 171910Z 13003KT 15/02 A3014 RMK A01 T01500018  RH  042%=      5-min Rain = 0
KMES 171915Z 14004KT 15/02 A3014 RMK A01 T01530018  RH  041%=      5-min Rain = 0
KMES 171920Z 15005KT 16/02 A3013 RMK A01 T01550017  RH  040%=      5-min Rain = 0
KMES 171925Z 14005KT 15/02 A3013 RMK A01 T01540017  RH  040%=      5-min Rain = 0
KMES 171930Z 13004KT 16/02 A3012 RMK A01 T01550017  RH  040%=      5-min Rain = 0
KMES 171935Z 14002KT 16/02 A3012 RMK A01 T01570017  RH  039%=      5-min Rain = 0
KMES 171940Z 15005KT 16/02 A3012 RMK A01 T01590015  RH  038%=      5-min Rain = 0
KMES 171945Z 15004KT 16/02 A3012 RMK A01 T01580015  RH  038%=      5-min Rain = 0
KMES 171950Z 14004KT 16/02 A3012 RMK A01 T01630016  RH  037%=      5-min Rain = 0
KMES 171955Z 13005KT 17/02 A3011 RMK A01 T01650015  RH  037%=      5-min Rain = 0
KMES 172000Z 13005KT 17/02 A3011 RMK A01 T01650015  RH  037%=      5-min Rain = 0
KMES 172005Z 13005KT 17/02 A3011 RMK A01 T01660016  RH  037%=      5-min Rain = 0
KMES 172010Z 12006KT 17/01 A301 RMK A01 T01650013  RH  036%=      5-min Rain = 0
KMES 172015Z 14004KT 17/01 A301 RMK A01 T01650013  RH  036%=      5-min Rain = 0
KMES 172020Z 15004KT 17/01 A301 RMK A01 T01680011  RH  035%=      5-min Rain = 0
KMES 172025Z 12004KT 17/01 A3009 RMK A01 T01710012  RH  035%=      5-min Rain = 0
KMES 172030Z 12005KT 17/01 A3009 RMK A01 T01690010  RH  035%=      5-min Rain = 0
KMES 172035Z 14005KT 17/01 A3009 RMK A01 T01710008  RH  034%=      5-min Rain = 0
KMES 172040Z 10004KT 17/00 A3009 RMK A01 T01700003  RH  033%=      5-min Rain = 0
KMES 172045Z 14005KT 17/00 A3009 RMK A01 T01700002  RH  033%=      5-min Rain = 0
KMES 172050Z 15004KT 17/00 A3009 RMK A01 T01720001  RH  032%=      5-min Rain = 0
KMES 172055Z 13003KT 17/M01 A3009 RMK A01 T01731005  RH  030%=      5-min Rain = 0
KMES 172100Z 13004KT 17/M00 A3009 RMK A01 T01731001  RH  031%=      5-min Rain = 0
KMES 172105Z 14004KT 17/00 A3009 RMK A01 T017300-0  RH  031%=      5-min Rain = 0
KMES 172110Z 14004KT 17/M00 A3009 RMK A01 T01731001  RH  031%=      5-min Rain = 0
KMES 172115Z 15004KT 17/M01 A3008 RMK A01 T01741008  RH  029%=      5-min Rain = 0
KMES 172120Z 16004KT 18/M00 A3008 RMK A01 T01761002  RH  030%=      5-min Rain = 0
KMES 172125Z 15005KT 18/M00 A3008 RMK A01 T01791004  RH  029%=      5-min Rain = 0
KMES 172130Z 14005KT 18/M01 A3008 RMK A01 T01771011  RH  028%=      5-min Rain = 0
KMES 172135Z 12006KT 18/M01 A3008 RMK A01 T01771013  RH  028%=      5-min Rain = 0
KMES 172140Z 13006KT 18/M01 A3007 RMK A01 T01761011  RH  028%=      5-min Rain = 0
KMES 172145Z 12006KT 18/M01 A3007 RMK A01 T01761008  RH  029%=      5-min Rain = 0
KMES 172150Z 13006KT 18/M01 A3007 RMK A01 T01761008  RH  029%=      5-min Rain = 0
KMES 172155Z 14007KT 18/M01 A3007 RMK A01 T01751012  RH  028%=      5-min Rain = 0
KMES 172200Z 14007KT 18/M02 A3007 RMK A01 T01751015  RH  028%=      5-min Rain = 0
KMES 172205Z 13007KT 17/M02 A3007 RMK A01 T01741016  RH  028%=      5-min Rain = 0
KMES 172210Z 13008KT 17/M02 A3007 RMK A01 T01741016  RH  028%=      5-min Rain = 0
KMES 172215Z 14007KT 17/M02 A3007 RMK A01 T01731016  RH  028%=      5-min Rain = 0
KMES 172220Z 14007KT 17/M02 A3007 RMK A01 T01731017  RH  028%=      5-min Rain = 0
KMES 172225Z 15007KT 17/M01 A3007 RMK A01 T01731007  RH  030%=      5-min Rain = 0
KMES 172230Z 14008KT 17/M00 A3007 RMK A01 T01721004  RH  031%=      5-min Rain = 0
KMES 172235Z 14008KT 17/M00 A3007 RMK A01 T01721001  RH  031%=      5-min Rain = 0
KMES 172240Z 14008KT 17/01 A3007 RMK A01 T01710006  RH  033%=      5-min Rain = 0
KMES 172245Z 13010KT 17/01 A3007 RMK A01 T01700012  RH  035%=      5-min Rain = 0
KMES 172250Z 13008KT 17/02 A3007 RMK A01 T01670015  RH  036%=      5-min Rain = 0
KMES 172255Z 13010KT 17/01 A3007 RMK A01 T01660014  RH  036%=      5-min Rain = 0
KMES 172300Z 14010KT 16/01 A3007 RMK A01 T01640006  RH  035%=      5-min Rain = 0
KMES 172305Z 14009KT 16/00 A3007 RMK A01 T01640004  RH  034%=      5-min Rain = 0
KMES 172310Z 13010KT 16/00 A3006 RMK A01 T016200-0  RH  034%=      5-min Rain = 0
KMES 172315Z 13009KT 16/00 A3006 RMK A01 T01590001  RH  035%=      5-min Rain = 0
KMES 172320Z 12008KT 16/00 A3006 RMK A01 T01560003  RH  036%=      5-min Rain = 0
KMES 172325Z 12008KT 16/01 A3006 RMK A01 T01550008  RH  037%=      5-min Rain = 0
KMES 172330Z 13008KT 15/02 A3005 RMK A01 T01530016  RH  040%=      5-min Rain = 0
KMES 172335Z 13008KT 15/02 A3005 RMK A01 T01500021  RH  042%=      5-min Rain = 0
KMES 172340Z 13008KT 15/02 A3005 RMK A01 T01470023  RH  044%=      5-min Rain = 0
KMES 172345Z 13008KT 14/02 A3005 RMK A01 T01430023  RH  045%=      5-min Rain = 0
KMES 172350Z 12008KT 14/02 A3005 RMK A01 T01400023  RH  046%=      5-min Rain = 0
KMES 172355Z 12008KT 14/02 A3005 RMK A01 T01360023  RH  047%=      5-min Rain = 0
KMES 180000Z 12007KT 13/02 A3005 RMK A01 T01330023  RH  048%=      5-min Rain = 0
KMES 180005Z 12007KT 13/02 A3005 RMK A01 T01290022  RH  049%=      5-min Rain = 0
KMES 180010Z 12007KT 13/02 A3005 RMK A01 T01260021  RH  050%=      5-min Rain = 0
KMES 180015Z 12007KT 12/02 A3006 RMK A01 T01240021  RH  050%=      5-min Rain = 0
KMES 180020Z 12008KT 12/02 A3006 RMK A01 T01210021  RH  051%=      5-min Rain = 0
KMES 180025Z 12007KT 12/02 A3006 RMK A01 T01190020  RH  052%=      5-min Rain = 0
KMES 180030Z 11007KT 12/02 A3006 RMK A01 T01160020  RH  053%=      5-min Rain = 0
KMES 180035Z 11007KT 11/02 A3006 RMK A01 T01130021  RH  054%=      5-min Rain = 0
KMES 180040Z 11007KT 11/02 A3005 RMK A01 T01110022  RH  055%=      5-min Rain = 0
KMES 180045Z 10006KT 11/02 A3006 RMK A01 T01100022  RH  055%=      5-min Rain = 0
KMES 180050Z 10006KT 11/02 A3006 RMK A01 T01090022  RH  056%=      5-min Rain = 0
KMES 180055Z 10006KT 11/02 A3006 RMK A01 T01070022  RH  056%=      5-min Rain = 0
KMES 180100Z 11006KT 11/02 A3006 RMK A01 T01060022  RH  057%=      5-min Rain = 0
KMES 180105Z 11006KT 10/02 A3006 RMK A01 T01040022  RH  058%=      5-min Rain = 0
KMES 180110Z 11005KT 10/02 A3006 RMK A01 T01020023  RH  059%=      5-min Rain = 0
KMES 180115Z 12005KT 10/02 A3006 RMK A01 T00990023  RH  060%=      5-min Rain = 0
KMES 180120Z 14004KT 10/02 A3007 RMK A01 T00960022  RH  061%=      5-min Rain = 0
KMES 180125Z 15003KT 10/02 A3007 RMK A01 T00960022  RH  061%=      5-min Rain = 0
KMES 180130Z 15003KT 10/02 A3007 RMK A01 T00950022  RH  061%=      5-min Rain = 0
KMES 180135Z 14003KT 09/02 A3006 RMK A01 T00940022  RH  062%=      5-min Rain = 0
KMES 180140Z 13004KT 09/02 A3006 RMK A01 T00920021  RH  062%=      5-min Rain = 0
KMES 180145Z 12004KT 09/02 A3006 RMK A01 T00890021  RH  063%=      5-min Rain = 0
KMES 180150Z 12005KT 09/02 A3006 RMK A01 T00850021  RH  065%=      5-min Rain = 0
KMES 180155Z 12005KT 08/02 A3006 RMK A01 T00830022  RH  067%=      5-min Rain = 0
KMES 180200Z 12004KT 08/02 A3007 RMK A01 T00800023  RH  068%=      5-min Rain = 0
KMES 180205Z 12004KT 08/02 A3006 RMK A01 T00800024  RH  069%=      5-min Rain = 0
KMES 180210Z 12004KT 08/02 A3006 RMK A01 T00780024  RH  070%=      5-min Rain = 0
KMES 180215Z 12004KT 08/02 A3006 RMK A01 T00770024  RH  070%=      5-min Rain = 0
KMES 180220Z 12004KT 08/02 A3006 RMK A01 T00760023  RH  071%=      5-min Rain = 0
KMES 180225Z 12005KT 07/02 A3006 RMK A01 T00740023  RH  071%=      5-min Rain = 0
KMES 180230Z 12005KT 07/02 A3006 RMK A01 T00730023  RH  072%=      5-min Rain = 0
KMES 180235Z 12004KT 07/02 A3006 RMK A01 T00710024  RH  073%=      5-min Rain = 0
KMES 180240Z 12003KT 07/03 A3006 RMK A01 T00710025  RH  074%=      5-min Rain = 0
KMES 180245Z 11005KT 07/02 A3005 RMK A01 T00690024  RH  074%=      5-min Rain = 0
KMES 180250Z 11004KT 07/02 A3005 RMK A01 T00680024  RH  075%=      5-min Rain = 0
KMES 180255Z 11004KT 07/03 A3005 RMK A01 T00680025  RH  075%=      5-min Rain = 0
KMES 180300Z 13004KT 07/03 A3005 RMK A01 T00680026  RH  076%=      5-min Rain = 0
KMES 180305Z 13004KT 07/03 A3004 RMK A01 T00670026  RH  077%=      5-min Rain = 0
KMES 180310Z 13004KT 07/02 A3004 RMK A01 T00650024  RH  077%=      5-min Rain = 0
KMES 180315Z 13002KT 06/02 A3004 RMK A01 T00620023  RH  077%=      5-min Rain = 0
KMES 180320Z 11002KT 06/02 A3004 RMK A01 T00610024  RH  078%=      5-min Rain = 0
KMES 180325Z 10001KT 06/02 A3003 RMK A01 T00580021  RH  078%=      5-min Rain = 0
KMES 180330Z 11000KT 05/02 A3003 RMK A01 T00530019  RH  080%=      5-min Rain = 0
KMES 180335Z 11001KT 05/02 A3003 RMK A01 T00530021  RH  081%=      5-min Rain = 0
KMES 180340Z 11002KT 05/02 A3003 RMK A01 T00510019  RH  081%=      5-min Rain = 0
KMES 180345Z 11002KT 05/02 A3002 RMK A01 T00500020  RH  082%=      5-min Rain = 0
KMES 180350Z 10001KT 05/02 A3003 RMK A01 T00510022  RH  083%=      5-min Rain = 0
KMES 180355Z 00000KT 05/03 A3003 RMK A01 T00540026  RH  084%=      5-min Rain = 0
KMES 180400Z 28000KT 05/02 A3003 RMK A01 T00520022  RH  083%=      5-min Rain = 0
KMES 180405Z 29001KT 05/02 A3003 RMK A01 T00470017  RH  082%=      5-min Rain = 0
KMES 180410Z 30001KT 04/01 A3003 RMK A01 T00410013  RH  083%=      5-min Rain = 0
KMES 180415Z 31000KT 04/01 A3003 RMK A01 T00380012  RH  084%=      5-min Rain = 0
KMES 180420Z 31001KT 04/01 A3003 RMK A01 T00390014  RH  085%=      5-min Rain = 0
KMES 180425Z 00000KT 04/02 A3003 RMK A01 T00410017  RH  086%=      5-min Rain = 0
KMES 180430Z 00000KT 04/02 A3003 RMK A01 T00430018  RH  085%=      5-min Rain = 0
KMES 180435Z 00000KT 04/01 A3003 RMK A01 T00370011  RH  084%=      5-min Rain = 0
KMES 180440Z 00000KT 03/00 A3003 RMK A01 T00290004  RH  084%=      5-min Rain = 0
KMES 180445Z 05001KT 02/M00 A3003 RMK A01 T00221001  RH  085%=      5-min Rain = 0
KMES 180450Z 05003KT 02/M00 A3002 RMK A01 T00201001  RH  087%=      5-min Rain = 0
KMES 180455Z 03002KT 02/M00 A3002 RMK A01 T00191001  RH  087%=      5-min Rain = 0
KMES 180500Z 02001KT 02/M00 A3002 RMK A01 T00171002  RH  088%=      5-min Rain = 0
KMES 180505Z 01003KT 02/M00 A3002 RMK A01 T00171001  RH  089%=      5-min Rain = 0
KMES 180510Z 01004KT 02/00 A3002 RMK A01 T00180004  RH  091%=      5-min Rain = 0
KMES 180515Z 01004KT 02/01 A3003 RMK A01 T00220009  RH  092%=      5-min Rain = 0
KMES 180520Z 02002KT 02/01 A3003 RMK A01 T00240010  RH  092%=      5-min Rain = 0
KMES 180525Z 05000KT 02/01 A3002 RMK A01 T00240010  RH  092%=      5-min Rain = 0
KMES 180530Z 08002KT 03/01 A3002 RMK A01 T00250012  RH  092%=      5-min Rain = 0
KMES 180535Z 10001KT 02/01 A3002 RMK A01 T00230008  RH  091%=      5-min Rain = 0
KMES 180540Z 09002KT 02/01 A3001 RMK A01 T00190005  RH  091%=      5-min Rain = 0
KMES 180545Z 09002KT 02/00 A3001 RMK A01 T00160002  RH  092%=      5-min Rain = 0
KMES 180550Z 08002KT 02/00 A3001 RMK A01 T00160003  RH  092%=      5-min Rain = 0
KMES 180555Z 06000KT 02/01 A3001 RMK A01 T00170005  RH  093%=      5-min Rain = 0

Page generated in 0.0149 seconds.